sensor_id;sensor_type;location;lat;lon;timestamp;temperature;humidity
13093;DHT22;6612;49.568;11.000;2023-07-20T00:00:15;23.00;58.10
13093;DHT22;6612;49.568;11.000;2023-07-20T00:02:43;23.00;58.00
13093;DHT22;6612;49.568;11.000;2023-07-20T00:05:09;23.00;58.00
13093;DHT22;6612;49.568;11.000;2023-07-20T00:07:36;22.90;57.90
13093;DHT22;6612;49.568;11.000;2023-07-20T00:10:04;22.90;57.90
13093;DHT22;6612;49.568;11.000;2023-07-20T00:12:31;22.90;57.90
13093;DHT22;6612;49.568;11.000;2023-07-20T00:14:59;22.90;57.80
13093;DHT22;6612;49.568;11.000;2023-07-20T00:17:26;22.90;58.10
13093;DHT22;6612;49.568;11.000;2023-07-20T00:19:53;22.80;57.90
13093;DHT22;6612;49.568;11.000;2023-07-20T00:22:20;22.80;58.00
13093;DHT22;6612;49.568;11.000;2023-07-20T00:24:47;22.80;58.10
13093;DHT22;6612;49.568;11.000;2023-07-20T00:27:15;22.80;58.10
13093;DHT22;6612;49.568;11.000;2023-07-20T00:29:42;22.80;58.90
13093;DHT22;6612;49.568;11.000;2023-07-20T00:32:10;22.70;58.30
13093;DHT22;6612;49.568;11.000;2023-07-20T00:34:37;22.70;58.50
13093;DHT22;6612;49.568;11.000;2023-07-20T00:37:04;22.70;58.50
13093;DHT22;6612;49.568;11.000;2023-07-20T00:39:31;22.70;58.50
13093;DHT22;6612;49.568;11.000;2023-07-20T00:41:58;22.70;58.50
13093;DHT22;6612;49.568;11.000;2023-07-20T00:44:25;22.60;58.40
13093;DHT22;6612;49.568;11.000;2023-07-20T00:46:52;22.60;58.40
13093;DHT22;6612;49.568;11.000;2023-07-20T00:49:21;22.60;58.40
13093;DHT22;6612;49.568;11.000;2023-07-20T00:51:48;22.60;58.70
13093;DHT22;6612;49.568;11.000;2023-07-20T00:54:16;22.60;58.90
13093;DHT22;6612;49.568;11.000;2023-07-20T00:56:43;22.50;58.90
13093;DHT22;6612;49.568;11.000;2023-07-20T00:59:11;22.50;59.10
13093;DHT22;6612;49.568;11.000;2023-07-20T01:01:38;22.50;59.10
13093;DHT22;6612;49.568;11.000;2023-07-20T01:04:05;22.50;59.20
13093;DHT22;6612;49.568;11.000;2023-07-20T01:06:38;22.50;59.30
13093;DHT22;6612;49.568;11.000;2023-07-20T01:09:13;22.50;59.70
13093;DHT22;6612;49.568;11.000;2023-07-20T01:11:49;22.50;59.60
13093;DHT22;6612;49.568;11.000;2023-07-20T01:14:19;22.50;59.70
13093;DHT22;6612;49.568;11.000;2023-07-20T01:16:46;22.50;59.00
13093;DHT22;6612;49.568;11.000;2023-07-20T01:19:15;22.50;59.20
13093;DHT22;6612;49.568;11.000;2023-07-20T01:21:48;22.50;59.10
13093;DHT22;6612;49.568;11.000;2023-07-20T01:24:32;22.40;59.40
13093;DHT22;6612;49.568;11.000;2023-07-20T01:27:36;22.40;59.60
13093;DHT22;6612;49.568;11.000;2023-07-20T01:30:32;22.30;59.70
13093;DHT22;6612;49.568;11.000;2023-07-20T01:33:03;22.30;59.40
13093;DHT22;6612;49.568;11.000;2023-07-20T01:35:32;22.20;58.90
13093;DHT22;6612;49.568;11.000;2023-07-20T01:38:01;22.20;59.10
13093;DHT22;6612;49.568;11.000;2023-07-20T01:40:29;22.10;59.20
13093;DHT22;6612;49.568;11.000;2023-07-20T01:42:56;22.10;59.40
13093;DHT22;6612;49.568;11.000;2023-07-20T01:45:23;22.10;59.60
13093;DHT22;6612;49.568;11.000;2023-07-20T01:47:51;22.10;59.80
13093;DHT22;6612;49.568;11.000;2023-07-20T01:50:19;22.10;60.00
13093;DHT22;6612;49.568;11.000;2023-07-20T01:52:46;22.10;61.20
13093;DHT22;6612;49.568;11.000;2023-07-20T01:55:13;22.10;60.40
13093;DHT22;6612;49.568;11.000;2023-07-20T01:57:40;22.20;61.30
13093;DHT22;6612;49.568;11.000;2023-07-20T02:00:08;22.20;60.70
13093;DHT22;6612;49.568;11.000;2023-07-20T02:02:35;22.20;60.80
13093;DHT22;6612;49.568;11.000;2023-07-20T02:05:02;22.20;60.90
13093;DHT22;6612;49.568;11.000;2023-07-20T02:07:31;22.30;61.10
13093;DHT22;6612;49.568;11.000;2023-07-20T02:09:57;22.30;61.30
13093;DHT22;6612;49.568;11.000;2023-07-20T02:12:24;22.30;61.20
13093;DHT22;6612;49.568;11.000;2023-07-20T02:14:51;22.40;61.30
13093;DHT22;6612;49.568;11.000;2023-07-20T02:17:18;22.40;61.90
13093;DHT22;6612;49.568;11.000;2023-07-20T02:19:45;22.50;61.30
13093;DHT22;6612;49.568;11.000;2023-07-20T02:22:15;22.40;61.20
13093;DHT22;6612;49.568;11.000;2023-07-20T02:24:43;22.50;61.20
13093;DHT22;6612;49.568;11.000;2023-07-20T02:27:10;22.50;61.30
13093;DHT22;6612;49.568;11.000;2023-07-20T02:29:37;22.50;61.20
13093;DHT22;6612;49.568;11.000;2023-07-20T02:32:05;22.50;61.10
13093;DHT22;6612;49.568;11.000;2023-07-20T02:34:32;22.50;61.10
13093;DHT22;6612;49.568;11.000;2023-07-20T02:36:59;22.50;61.10
13093;DHT22;6612;49.568;11.000;2023-07-20T02:39:27;22.50;61.80
13093;DHT22;6612;49.568;11.000;2023-07-20T02:41:55;22.60;61.10
13093;DHT22;6612;49.568;11.000;2023-07-20T02:44:22;22.60;61.00
13093;DHT22;6612;49.568;11.000;2023-07-20T02:46:49;22.60;60.70
13093;DHT22;6612;49.568;11.000;2023-07-20T02:49:16;22.50;60.50
13093;DHT22;6612;49.568;11.000;2023-07-20T02:51:43;22.50;60.40
13093;DHT22;6612;49.568;11.000;2023-07-20T02:54:10;22.50;60.20
13093;DHT22;6612;49.568;11.000;2023-07-20T02:56:37;22.50;60.10
13093;DHT22;6612;49.568;11.000;2023-07-20T02:59:05;22.50;60.00
13093;DHT22;6612;49.568;11.000;2023-07-20T03:01:32;22.40;59.90
13093;DHT22;6612;49.568;11.000;2023-07-20T03:03:59;22.30;59.70
13093;DHT22;6612;49.568;11.000;2023-07-20T03:06:26;22.30;59.80
13093;DHT22;6612;49.568;11.000;2023-07-20T03:08:53;22.20;59.80
13093;DHT22;6612;49.568;11.000;2023-07-20T03:11:20;22.20;59.90
13093;DHT22;6612;49.568;11.000;2023-07-20T03:13:47;22.10;59.90
13093;DHT22;6612;49.568;11.000;2023-07-20T03:16:18;22.10;60.00
13093;DHT22;6612;49.568;11.000;2023-07-20T03:18:45;22.00;60.40
13093;DHT22;6612;49.568;11.000;2023-07-20T03:21:13;22.00;60.20
13093;DHT22;6612;49.568;11.000;2023-07-20T03:23:40;21.90;60.20
13093;DHT22;6612;49.568;11.000;2023-07-20T03:26:07;21.90;60.30
13093;DHT22;6612;49.568;11.000;2023-07-20T03:28:35;21.90;60.40
13093;DHT22;6612;49.568;11.000;2023-07-20T03:31:01;21.80;60.40
13093;DHT22;6612;49.568;11.000;2023-07-20T03:33:30;21.80;60.50
13093;DHT22;6612;49.568;11.000;2023-07-20T03:35:57;21.80;60.80
13093;DHT22;6612;49.568;11.000;2023-07-20T03:38:25;21.80;60.80
13093;DHT22;6612;49.568;11.000;2023-07-20T03:40:54;21.80;60.90
13093;DHT22;6612;49.568;11.000;2023-07-20T03:43:21;21.70;61.10
13093;DHT22;6612;49.568;11.000;2023-07-20T03:45:48;21.80;61.30
13093;DHT22;6612;49.568;11.000;2023-07-20T03:48:16;21.80;61.50
13093;DHT22;6612;49.568;11.000;2023-07-20T03:50:45;21.80;61.50
13093;DHT22;6612;49.568;11.000;2023-07-20T03:53:12;21.80;61.90
13093;DHT22;6612;49.568;11.000;2023-07-20T03:55:39;21.80;61.60
13093;DHT22;6612;49.568;11.000;2023-07-20T03:58:07;21.80;61.70
13093;DHT22;6612;49.568;11.000;2023-07-20T04:00:34;21.80;61.80
13093;DHT22;6612;49.568;11.000;2023-07-20T04:03:01;21.80;61.80
13093;DHT22;6612;49.568;11.000;2023-07-20T04:05:28;21.80;61.80
13093;DHT22;6612;49.568;11.000;2023-07-20T04:07:56;21.80;61.80
13093;DHT22;6612;49.568;11.000;2023-07-20T04:10:23;21.90;62.30
13093;DHT22;6612;49.568;11.000;2023-07-20T04:12:50;21.90;62.10
13093;DHT22;6612;49.568;11.000;2023-07-20T04:15:17;21.90;62.90
13093;DHT22;6612;49.568;11.000;2023-07-20T04:17:45;21.90;62.10
13093;DHT22;6612;49.568;11.000;2023-07-20T04:20:12;22.00;62.30
13093;DHT22;6612;49.568;11.000;2023-07-20T04:22:39;22.00;62.20
13093;DHT22;6612;49.568;11.000;2023-07-20T04:25:08;22.00;62.20
13093;DHT22;6612;49.568;11.000;2023-07-20T04:27:35;22.00;62.40
13093;DHT22;6612;49.568;11.000;2023-07-20T04:30:02;22.10;62.30
13093;DHT22;6612;49.568;11.000;2023-07-20T04:32:29;22.10;62.20
13093;DHT22;6612;49.568;11.000;2023-07-20T04:34:59;22.10;62.20
13093;DHT22;6612;49.568;11.000;2023-07-20T04:37:26;22.10;62.20
13093;DHT22;6612;49.568;11.000;2023-07-20T04:39:53;22.20;62.20
13093;DHT22;6612;49.568;11.000;2023-07-20T04:42:21;22.20;62.00
13093;DHT22;6612;49.568;11.000;2023-07-20T04:44:48;22.30;62.30
13093;DHT22;6612;49.568;11.000;2023-07-20T04:47:15;22.30;62.20
13093;DHT22;6612;49.568;11.000;2023-07-20T04:49:42;22.40;62.50
13093;DHT22;6612;49.568;11.000;2023-07-20T04:52:09;22.50;62.60
13093;DHT22;6612;49.568;11.000;2023-07-20T04:54:36;22.60;62.20
13093;DHT22;6612;49.568;11.000;2023-07-20T04:57:04;22.70;61.90
13093;DHT22;6612;49.568;11.000;2023-07-20T04:59:37;22.80;61.70
13093;DHT22;6612;49.568;11.000;2023-07-20T05:02:04;22.90;62.40
13093;DHT22;6612;49.568;11.000;2023-07-20T05:04:31;23.00;61.60
13093;DHT22;6612;49.568;11.000;2023-07-20T05:06:58;23.10;61.60
13093;DHT22;6612;49.568;11.000;2023-07-20T05:09:25;23.10;61.40
13093;DHT22;6612;49.568;11.000;2023-07-20T05:11:52;23.20;61.30
13093;DHT22;6612;49.568;11.000;2023-07-20T05:14:19;23.30;61.30
13093;DHT22;6612;49.568;11.000;2023-07-20T05:16:47;23.40;62.40
13093;DHT22;6612;49.568;11.000;2023-07-20T05:19:14;23.60;62.20
13093;DHT22;6612;49.568;11.000;2023-07-20T05:21:41;23.80;62.20
13093;DHT22;6612;49.568;11.000;2023-07-20T05:24:08;24.10;62.00
13093;DHT22;6612;49.568;11.000;2023-07-20T05:26:35;24.20;61.10
13093;DHT22;6612;49.568;11.000;2023-07-20T05:29:02;24.40;60.30
13093;DHT22;6612;49.568;11.000;2023-07-20T05:31:28;24.50;59.60
13093;DHT22;6612;49.568;11.000;2023-07-20T05:33:58;24.60;59.30
13093;DHT22;6612;49.568;11.000;2023-07-20T05:36:25;24.60;58.80
13093;DHT22;6612;49.568;11.000;2023-07-20T05:38:52;24.70;58.50
13093;DHT22;6612;49.568;11.000;2023-07-20T05:41:19;24.70;58.20
13093;DHT22;6612;49.568;11.000;2023-07-20T05:43:48;24.80;58.10
13093;DHT22;6612;49.568;11.000;2023-07-20T05:46:15;24.90;58.00
13093;DHT22;6612;49.568;11.000;2023-07-20T05:48:42;24.90;57.80
13093;DHT22;6612;49.568;11.000;2023-07-20T05:51:10;25.00;57.80
13093;DHT22;6612;49.568;11.000;2023-07-20T05:53:37;25.10;57.60
13093;DHT22;6612;49.568;11.000;2023-07-20T05:56:04;25.20;57.50
13093;DHT22;6612;49.568;11.000;2023-07-20T05:58:31;25.30;57.90
13093;DHT22;6612;49.568;11.000;2023-07-20T06:00:58;25.60;59.80
13093;DHT22;6612;49.568;11.000;2023-07-20T06:03:25;26.00;61.20
13093;DHT22;6612;49.568;11.000;2023-07-20T06:05:57;26.60;62.70
13093;DHT22;6612;49.568;11.000;2023-07-20T06:08:25;27.30;61.70
13093;DHT22;6612;49.568;11.000;2023-07-20T06:10:52;28.10;61.20
13093;DHT22;6612;49.568;11.000;2023-07-20T06:13:19;28.90;60.30
13093;DHT22;6612;49.568;11.000;2023-07-20T06:15:46;29.80;58.40
13093;DHT22;6612;49.568;11.000;2023-07-20T06:18:13;30.60;57.10
13093;DHT22;6612;49.568;11.000;2023-07-20T06:20:40;31.40;55.20
13093;DHT22;6612;49.568;11.000;2023-07-20T06:23:07;32.10;53.50
13093;DHT22;6612;49.568;11.000;2023-07-20T06:25:35;32.80;51.80
13093;DHT22;6612;49.568;11.000;2023-07-20T06:28:02;33.50;50.00
13093;DHT22;6612;49.568;11.000;2023-07-20T06:30:30;34.20;49.30
13093;DHT22;6612;49.568;11.000;2023-07-20T06:33:00;34.80;47.20
13093;DHT22;6612;49.568;11.000;2023-07-20T06:35:27;35.40;45.60
13093;DHT22;6612;49.568;11.000;2023-07-20T06:37:53;35.90;43.80
13093;DHT22;6612;49.568;11.000;2023-07-20T06:42:48;36.90;40.80
13093;DHT22;6612;49.568;11.000;2023-07-20T06:45:15;37.30;39.10
13093;DHT22;6612;49.568;11.000;2023-07-20T06:47:42;37.50;38.40
13093;DHT22;6612;49.568;11.000;2023-07-20T06:50:09;37.70;37.30
13093;DHT22;6612;49.568;11.000;2023-07-20T06:52:37;37.80;36.10
13093;DHT22;6612;49.568;11.000;2023-07-20T06:55:06;37.80;35.30
13093;DHT22;6612;49.568;11.000;2023-07-20T06:57:33;37.70;34.30
13093;DHT22;6612;49.568;11.000;2023-07-20T07:00:02;37.60;33.70
13093;DHT22;6612;49.568;11.000;2023-07-20T07:02:29;37.40;33.30
13093;DHT22;6612;49.568;11.000;2023-07-20T07:04:56;37.30;33.10
13093;DHT22;6612;49.568;11.000;2023-07-20T07:07:23;37.20;33.00
13093;DHT22;6612;49.568;11.000;2023-07-20T07:09:50;37.20;32.80
13093;DHT22;6612;49.568;11.000;2023-07-20T07:12:17;37.30;32.50
13093;DHT22;6612;49.568;11.000;2023-07-20T07:14:44;37.40;32.30
13093;DHT22;6612;49.568;11.000;2023-07-20T07:17:12;37.40;32.20
13093;DHT22;6612;49.568;11.000;2023-07-20T07:19:40;37.30;30.60
13093;DHT22;6612;49.568;11.000;2023-07-20T07:22:07;37.10;30.60
13093;DHT22;6612;49.568;11.000;2023-07-20T07:24:34;36.80;30.00
13093;DHT22;6612;49.568;11.000;2023-07-20T07:27:02;36.50;29.80
13093;DHT22;6612;49.568;11.000;2023-07-20T07:29:29;36.20;29.80
13093;DHT22;6612;49.568;11.000;2023-07-20T07:31:56;35.80;29.90
13093;DHT22;6612;49.568;11.000;2023-07-20T07:34:25;35.40;30.00
13093;DHT22;6612;49.568;11.000;2023-07-20T07:36:52;35.10;30.20
13093;DHT22;6612;49.568;11.000;2023-07-20T07:39:19;34.80;30.20
13093;DHT22;6612;49.568;11.000;2023-07-20T07:41:46;34.50;30.20
13093;DHT22;6612;49.568;11.000;2023-07-20T07:44:13;34.30;30.40
13093;DHT22;6612;49.568;11.000;2023-07-20T07:46:40;34.10;30.60
13093;DHT22;6612;49.568;11.000;2023-07-20T07:49:07;33.90;30.70
13093;DHT22;6612;49.568;11.000;2023-07-20T07:51:35;33.70;30.80
13093;DHT22;6612;49.568;11.000;2023-07-20T07:54:02;33.50;31.20
13093;DHT22;6612;49.568;11.000;2023-07-20T07:56:29;33.40;31.90
13093;DHT22;6612;49.568;11.000;2023-07-20T07:58:56;33.30;32.40
13093;DHT22;6612;49.568;11.000;2023-07-20T08:01:23;33.20;32.50
13093;DHT22;6612;49.568;11.000;2023-07-20T08:03:51;33.10;32.20
13093;DHT22;6612;49.568;11.000;2023-07-20T08:06:18;33.00;32.50
13093;DHT22;6612;49.568;11.000;2023-07-20T08:08:46;32.90;32.90
13093;DHT22;6612;49.568;11.000;2023-07-20T08:11:13;32.80;32.50
13093;DHT22;6612;49.568;11.000;2023-07-20T08:13:40;32.80;32.50
13093;DHT22;6612;49.568;11.000;2023-07-20T08:16:07;32.80;32.70
13093;DHT22;6612;49.568;11.000;2023-07-20T08:18:34;32.70;33.30
13093;DHT22;6612;49.568;11.000;2023-07-20T08:21:01;32.80;32.60
13093;DHT22;6612;49.568;11.000;2023-07-20T08:23:28;32.70;32.50
13093;DHT22;6612;49.568;11.000;2023-07-20T08:25:56;32.70;32.50
13093;DHT22;6612;49.568;11.000;2023-07-20T08:28:23;32.70;32.60
13093;DHT22;6612;49.568;11.000;2023-07-20T08:30:52;32.70;32.70
13093;DHT22;6612;49.568;11.000;2023-07-20T08:33:19;32.80;32.50
13093;DHT22;6612;49.568;11.000;2023-07-20T08:35:47;32.80;32.40
13093;DHT22;6612;49.568;11.000;2023-07-20T08:38:14;32.80;31.90
13093;DHT22;6612;49.568;11.000;2023-07-20T08:40:42;32.80;32.10
13093;DHT22;6612;49.568;11.000;2023-07-20T08:43:12;32.90;32.10
13093;DHT22;6612;49.568;11.000;2023-07-20T08:45:40;32.90;31.90
13093;DHT22;6612;49.568;11.000;2023-07-20T08:48:08;32.90;31.50
13093;DHT22;6612;49.568;11.000;2023-07-20T08:50:35;32.90;31.60
13093;DHT22;6612;49.568;11.000;2023-07-20T08:53:03;32.90;31.10
13093;DHT22;6612;49.568;11.000;2023-07-20T08:55:30;32.80;31.20
13093;DHT22;6612;49.568;11.000;2023-07-20T08:57:59;32.80;31.30
13093;DHT22;6612;49.568;11.000;2023-07-20T09:00:28;32.70;31.10
13093;DHT22;6612;49.568;11.000;2023-07-20T09:02:55;32.60;31.20
13093;DHT22;6612;49.568;11.000;2023-07-20T09:05:23;32.60;31.30
13093;DHT22;6612;49.568;11.000;2023-07-20T09:07:51;32.60;31.20
13093;DHT22;6612;49.568;11.000;2023-07-20T09:10:20;32.60;31.10
13093;DHT22;6612;49.568;11.000;2023-07-20T09:12:47;32.50;31.20
13093;DHT22;6612;49.568;11.000;2023-07-20T09:15:15;32.50;31.00
13093;DHT22;6612;49.568;11.000;2023-07-20T09:17:47;32.50;31.10
13093;DHT22;6612;49.568;11.000;2023-07-20T09:20:15;32.60;30.80
13093;DHT22;6612;49.568;11.000;2023-07-20T09:22:43;32.60;31.20
13093;DHT22;6612;49.568;11.000;2023-07-20T09:25:11;32.60;31.40
13093;DHT22;6612;49.568;11.000;2023-07-20T09:27:40;32.60;31.10
13093;DHT22;6612;49.568;11.000;2023-07-20T09:30:08;32.60;30.80
13093;DHT22;6612;49.568;11.000;2023-07-20T09:32:40;32.60;30.60
13093;DHT22;6612;49.568;11.000;2023-07-20T09:35:12;32.60;30.20
13093;DHT22;6612;49.568;11.000;2023-07-20T09:37:41;32.50;29.70
13093;DHT22;6612;49.568;11.000;2023-07-20T09:40:09;32.40;30.10
13093;DHT22;6612;49.568;11.000;2023-07-20T09:42:37;32.40;30.00
13093;DHT22;6612;49.568;11.000;2023-07-20T09:45:07;32.30;29.80
13093;DHT22;6612;49.568;11.000;2023-07-20T09:47:36;32.20;29.80
13093;DHT22;6612;49.568;11.000;2023-07-20T09:50:04;32.20;29.90
13093;DHT22;6612;49.568;11.000;2023-07-20T09:52:38;32.10;30.30
13093;DHT22;6612;49.568;11.000;2023-07-20T09:55:06;32.10;30.20
13093;DHT22;6612;49.568;11.000;2023-07-20T09:57:34;32.20;30.00
13093;DHT22;6612;49.568;11.000;2023-07-20T10:00:03;32.10;29.60
13093;DHT22;6612;49.568;11.000;2023-07-20T10:02:34;32.10;29.30
13093;DHT22;6612;49.568;11.000;2023-07-20T10:05:04;32.00;29.60
13093;DHT22;6612;49.568;11.000;2023-07-20T10:07:31;31.90;29.60
13093;DHT22;6612;49.568;11.000;2023-07-20T10:10:02;31.80;29.60
13093;DHT22;6612;49.568;11.000;2023-07-20T10:12:31;31.80;29.50
13093;DHT22;6612;49.568;11.000;2023-07-20T10:15:06;31.80;29.70
13093;DHT22;6612;49.568;11.000;2023-07-20T10:17:37;31.80;29.50
13093;DHT22;6612;49.568;11.000;2023-07-20T10:20:08;31.80;29.50
13093;DHT22;6612;49.568;11.000;2023-07-20T10:22:37;31.70;29.50
13093;DHT22;6612;49.568;11.000;2023-07-20T10:25:07;31.70;29.30
13093;DHT22;6612;49.568;11.000;2023-07-20T10:27:34;31.70;29.20
13093;DHT22;6612;49.568;11.000;2023-07-20T10:30:01;31.60;29.10
13093;DHT22;6612;49.568;11.000;2023-07-20T10:32:30;31.50;29.10
13093;DHT22;6612;49.568;11.000;2023-07-20T10:34:57;31.40;29.50
13093;DHT22;6612;49.568;11.000;2023-07-20T10:37:47;31.40;29.00
13093;DHT22;6612;49.568;11.000;2023-07-20T10:40:32;31.40;29.10
13093;DHT22;6612;49.568;11.000;2023-07-20T10:43:06;31.40;28.90
13093;DHT22;6612;49.568;11.000;2023-07-20T10:45:40;31.50;29.00
13093;DHT22;6612;49.568;11.000;2023-07-20T10:48:13;31.50;28.60
13093;DHT22;6612;49.568;11.000;2023-07-20T10:50:41;31.60;28.60
13093;DHT22;6612;49.568;11.000;2023-07-20T10:53:15;31.60;28.80
13093;DHT22;6612;49.568;11.000;2023-07-20T10:55:44;31.60;28.50
13093;DHT22;6612;49.568;11.000;2023-07-20T10:58:13;31.70;28.50
13093;DHT22;6612;49.568;11.000;2023-07-20T11:01:00;31.80;28.30
13093;DHT22;6612;49.568;11.000;2023-07-20T11:03:29;31.80;28.10
13093;DHT22;6612;49.568;11.000;2023-07-20T11:05:57;31.90;28.80
13093;DHT22;6612;49.568;11.000;2023-07-20T11:08:48;32.00;28.80
13093;DHT22;6612;49.568;11.000;2023-07-20T11:11:27;32.00;28.30
13093;DHT22;6612;49.568;11.000;2023-07-20T11:13:58;32.10;28.50
13093;DHT22;6612;49.568;11.000;2023-07-20T11:16:41;32.30;28.80
13093;DHT22;6612;49.568;11.000;2023-07-20T11:19:17;32.40;27.90
13093;DHT22;6612;49.568;11.000;2023-07-20T11:21:45;32.40;27.80
13093;DHT22;6612;49.568;11.000;2023-07-20T11:24:13;32.40;28.30
13093;DHT22;6612;49.568;11.000;2023-07-20T11:26:42;32.40;28.00
13093;DHT22;6612;49.568;11.000;2023-07-20T11:29:09;32.30;28.00
13093;DHT22;6612;49.568;11.000;2023-07-20T11:31:37;32.30;28.10
13093;DHT22;6612;49.568;11.000;2023-07-20T11:34:04;32.30;28.00
13093;DHT22;6612;49.568;11.000;2023-07-20T11:36:31;32.30;27.90
13093;DHT22;6612;49.568;11.000;2023-07-20T11:38:59;32.40;27.90
13093;DHT22;6612;49.568;11.000;2023-07-20T11:41:26;32.30;27.80
13093;DHT22;6612;49.568;11.000;2023-07-20T11:43:55;32.30;27.80
13093;DHT22;6612;49.568;11.000;2023-07-20T11:46:23;32.30;27.70
13093;DHT22;6612;49.568;11.000;2023-07-20T11:48:56;32.30;27.80
13093;DHT22;6612;49.568;11.000;2023-07-20T11:51:24;32.30;27.50
13093;DHT22;6612;49.568;11.000;2023-07-20T11:53:51;32.20;27.40
13093;DHT22;6612;49.568;11.000;2023-07-20T11:56:18;32.20;27.20
13093;DHT22;6612;49.568;11.000;2023-07-20T11:58:45;32.10;27.20
13093;DHT22;6612;49.568;11.000;2023-07-20T12:01:14;32.10;27.20
13093;DHT22;6612;49.568;11.000;2023-07-20T12:03:42;32.10;27.40
13093;DHT22;6612;49.568;11.000;2023-07-20T12:06:09;32.10;27.40
13093;DHT22;6612;49.568;11.000;2023-07-20T12:08:38;32.10;27.40
13093;DHT22;6612;49.568;11.000;2023-07-20T12:11:07;32.10;27.30
13093;DHT22;6612;49.568;11.000;2023-07-20T12:13:43;32.10;27.10
13093;DHT22;6612;49.568;11.000;2023-07-20T12:16:14;32.10;26.70
13093;DHT22;6612;49.568;11.000;2023-07-20T12:18:41;32.10;26.80
13093;DHT22;6612;49.568;11.000;2023-07-20T12:21:10;32.10;26.80
13093;DHT22;6612;49.568;11.000;2023-07-20T12:23:38;32.10;27.00
13093;DHT22;6612;49.568;11.000;2023-07-20T12:26:09;32.00;27.00
13093;DHT22;6612;49.568;11.000;2023-07-20T12:28:38;32.00;26.60
13093;DHT22;6612;49.568;11.000;2023-07-20T12:31:06;32.00;26.70
13093;DHT22;6612;49.568;11.000;2023-07-20T12:33:35;32.00;26.80
13093;DHT22;6612;49.568;11.000;2023-07-20T12:36:02;32.00;26.50
13093;DHT22;6612;49.568;11.000;2023-07-20T12:38:29;32.00;26.60
13093;DHT22;6612;49.568;11.000;2023-07-20T12:40:57;31.90;26.70
13093;DHT22;6612;49.568;11.000;2023-07-20T12:43:26;31.90;26.60
13093;DHT22;6612;49.568;11.000;2023-07-20T12:45:53;31.90;26.70
13093;DHT22;6612;49.568;11.000;2023-07-20T12:48:20;31.90;26.60
13093;DHT22;6612;49.568;11.000;2023-07-20T12:50:48;31.80;27.00
13093;DHT22;6612;49.568;11.000;2023-07-20T12:53:15;31.80;26.60
13093;DHT22;6612;49.568;11.000;2023-07-20T12:55:42;31.70;26.50
13093;DHT22;6612;49.568;11.000;2023-07-20T12:58:11;31.70;27.00
13093;DHT22;6612;49.568;11.000;2023-07-20T13:00:38;31.70;27.20
13093;DHT22;6612;49.568;11.000;2023-07-20T13:03:06;31.60;27.10
13093;DHT22;6612;49.568;11.000;2023-07-20T13:05:34;31.60;27.30
13093;DHT22;6612;49.568;11.000;2023-07-20T13:08:03;31.50;27.10
13093;DHT22;6612;49.568;11.000;2023-07-20T13:10:31;31.50;26.70
13093;DHT22;6612;49.568;11.000;2023-07-20T13:12:58;31.50;26.60
13093;DHT22;6612;49.568;11.000;2023-07-20T13:15:29;31.40;26.30
13093;DHT22;6612;49.568;11.000;2023-07-20T13:17:58;31.40;26.50
13093;DHT22;6612;49.568;11.000;2023-07-20T13:20:26;31.40;26.60
13093;DHT22;6612;49.568;11.000;2023-07-20T13:22:53;31.40;26.70
13093;DHT22;6612;49.568;11.000;2023-07-20T13:25:21;31.40;26.60
13093;DHT22;6612;49.568;11.000;2023-07-20T13:27:48;31.30;26.50
13093;DHT22;6612;49.568;11.000;2023-07-20T13:30:15;31.30;26.80
13093;DHT22;6612;49.568;11.000;2023-07-20T13:32:43;31.30;26.70
13093;DHT22;6612;49.568;11.000;2023-07-20T13:35:10;31.30;26.80
13093;DHT22;6612;49.568;11.000;2023-07-20T13:37:37;31.30;26.60
13093;DHT22;6612;49.568;11.000;2023-07-20T13:40:05;31.30;26.50
13093;DHT22;6612;49.568;11.000;2023-07-20T13:42:35;31.30;26.40
13093;DHT22;6612;49.568;11.000;2023-07-20T13:45:03;31.20;26.60
13093;DHT22;6612;49.568;11.000;2023-07-20T13:47:30;31.20;26.90
13093;DHT22;6612;49.568;11.000;2023-07-20T13:49:57;31.20;26.70
13093;DHT22;6612;49.568;11.000;2023-07-20T13:52:24;31.10;27.00
13093;DHT22;6612;49.568;11.000;2023-07-20T13:54:51;31.10;26.80
13093;DHT22;6612;49.568;11.000;2023-07-20T13:57:18;31.10;26.80
13093;DHT22;6612;49.568;11.000;2023-07-20T13:59:46;31.10;26.70
13093;DHT22;6612;49.568;11.000;2023-07-20T14:02:14;31.10;27.00
13093;DHT22;6612;49.568;11.000;2023-07-20T14:04:41;31.10;26.60
13093;DHT22;6612;49.568;11.000;2023-07-20T14:07:08;31.10;26.60
13093;DHT22;6612;49.568;11.000;2023-07-20T14:09:34;31.10;26.40
13093;DHT22;6612;49.568;11.000;2023-07-20T14:12:01;31.00;26.60
13093;DHT22;6612;49.568;11.000;2023-07-20T14:14:28;31.00;26.40
13093;DHT22;6612;49.568;11.000;2023-07-20T14:16:57;30.90;26.40
13093;DHT22;6612;49.568;11.000;2023-07-20T14:19:24;30.90;26.30
13093;DHT22;6612;49.568;11.000;2023-07-20T14:21:50;30.90;26.30
13093;DHT22;6612;49.568;11.000;2023-07-20T14:24:17;30.90;26.40
13093;DHT22;6612;49.568;11.000;2023-07-20T14:26:44;30.80;26.40
13093;DHT22;6612;49.568;11.000;2023-07-20T14:29:13;30.80;26.40
13093;DHT22;6612;49.568;11.000;2023-07-20T14:31:39;30.80;26.30
13093;DHT22;6612;49.568;11.000;2023-07-20T14:34:08;30.70;26.30
13093;DHT22;6612;49.568;11.000;2023-07-20T14:36:35;30.70;26.50
13093;DHT22;6612;49.568;11.000;2023-07-20T14:39:02;30.60;26.40
13093;DHT22;6612;49.568;11.000;2023-07-20T14:41:30;30.60;26.60
13093;DHT22;6612;49.568;11.000;2023-07-20T14:43:57;30.60;26.80
13093;DHT22;6612;49.568;11.000;2023-07-20T14:46:24;30.50;26.70
13093;DHT22;6612;49.568;11.000;2023-07-20T14:48:51;30.50;26.70
13093;DHT22;6612;49.568;11.000;2023-07-20T14:51:19;30.50;26.50
13093;DHT22;6612;49.568;11.000;2023-07-20T14:53:46;30.50;26.40
13093;DHT22;6612;49.568;11.000;2023-07-20T14:56:13;30.50;26.40
13093;DHT22;6612;49.568;11.000;2023-07-20T14:58:40;30.50;26.40
13093;DHT22;6612;49.568;11.000;2023-07-20T15:01:07;30.50;26.40
13093;DHT22;6612;49.568;11.000;2023-07-20T15:03:34;30.40;26.30
13093;DHT22;6612;49.568;11.000;2023-07-20T15:06:01;30.40;26.30
13093;DHT22;6612;49.568;11.000;2023-07-20T15:08:30;30.40;26.20
13093;DHT22;6612;49.568;11.000;2023-07-20T15:10:57;30.40;26.20
13093;DHT22;6612;49.568;11.000;2023-07-20T15:13:24;30.40;26.20
13093;DHT22;6612;49.568;11.000;2023-07-20T15:15:51;30.40;26.30
13093;DHT22;6612;49.568;11.000;2023-07-20T15:18:18;30.40;26.40
13093;DHT22;6612;49.568;11.000;2023-07-20T15:20:45;30.40;26.50
13093;DHT22;6612;49.568;11.000;2023-07-20T15:23:14;30.40;26.50
13093;DHT22;6612;49.568;11.000;2023-07-20T15:25:42;30.40;26.40
13093;DHT22;6612;49.568;11.000;2023-07-20T15:28:09;30.40;26.50
13093;DHT22;6612;49.568;11.000;2023-07-20T15:30:36;30.50;26.30
13093;DHT22;6612;49.568;11.000;2023-07-20T15:33:03;30.50;26.20
13093;DHT22;6612;49.568;11.000;2023-07-20T15:35:30;30.50;26.40
13093;DHT22;6612;49.568;11.000;2023-07-20T15:37:59;30.50;26.30